UNV - State College Rgnl

Pirep is a free, collaborative database of all public and private airports located within the United States. All pilots are welcome to contribute, edit, and improve any airport they have local knowledge about, no registration required.
Uploaded photos will be licensed under a CC BY-SA 4.0 license. Please only upload photos you have the rights to use.
Tags
Public
METAR / TAF
Edit Tags
Food
Camping
Lodging
Car Rental
Bicycles
Swimming
Golfing
Fishing
Hot Springs
Museum
Flying Clubs
Airpark
Upcoming Events
No upcoming events. Is anything happening here soon?
*
*
*

Where exactly on/near the airport is this event taking place?

Is there a webpage with more information for this event?

Who should be contacted for more information?

What is this event all about?

Repeat every
Description
Transient Parking
Fuel Location
Landing & Tie-down Fees
Crew Car Availability
Flying Clubs
WiFi Access
Airport Statistics
Location: State College, PA
Elevation: 1,231ft
Sectional: Detroit
Activation date: Mar 1959
Fuel: 100LL, A (prices)
Runway 06/24: 6,701ft
Access: Open to the public
Current Weather — MVFR
  • Weather data is strictly informational and not for flight planning purposes.
  • METAR
    2024-05-29 13:08:00 EDT
    Ceiling Wind Temperature Dewpoint Weather Visbility
    1,000ft 210° @ 12kt 62°F 53°F Thunderstorm rain 3SM
    Clouds: Broken @ 1,000ft, Broken @ 3,000ft
    Raw: KUNV 291708Z 21012KT 3SM TSRA BKN010 BKN030CB 17/12 A2998 RMK OCNL LTGCCICCG SE-W TS W MOV E
  • TAF
    2024-05-29 12:00:00 EDT – 2024-05-29 13:00:00 EDT
    Ceiling Wind Weather Visbility
    10,000ft 270° @ 4kt Thunderstorm in vicinity 6SM
    Clouds: Scattered @ 3,500ft, Broken @ 10,000ft
    Raw: KUNV 291618Z 2916/3012 27004KT P6SM VCTS SCT035 BKN100CB FM291700 29006KT 4SM -SHRA BR VCTS BKN035CB OVC050 FM292200 35004KT 4SM -SHRA BR OVC050 FM300300 34003KT 6SM BR BKN030 OVC040 FM300700 33002KT P6SM SCT050 BKN090
  • TAF
    2024-05-29 13:00:00 EDT – 2024-05-29 18:00:00 EDT
    Ceiling Wind Weather Visbility
    3,500ft 290° @ 6kt Light rain showers, mist, thunderstorm in vicinity 4SM
    Clouds: Broken @ 3,500ft, Overcast @ 5,000ft
    Raw: KUNV 291618Z 2916/3012 27004KT P6SM VCTS SCT035 BKN100CB FM291700 29006KT 4SM -SHRA BR VCTS BKN035CB OVC050 FM292200 35004KT 4SM -SHRA BR OVC050 FM300300 34003KT 6SM BR BKN030 OVC040 FM300700 33002KT P6SM SCT050 BKN090
  • TAF
    2024-05-29 18:00:00 EDT – 2024-05-29 23:00:00 EDT
    Ceiling Wind Weather Visbility
    5,000ft 350° @ 4kt Light rain showers, mist 4SM
    Clouds: Overcast @ 5,000ft
    Raw: KUNV 291618Z 2916/3012 27004KT P6SM VCTS SCT035 BKN100CB FM291700 29006KT 4SM -SHRA BR VCTS BKN035CB OVC050 FM292200 35004KT 4SM -SHRA BR OVC050 FM300300 34003KT 6SM BR BKN030 OVC040 FM300700 33002KT P6SM SCT050 BKN090
  • TAF
    2024-05-29 23:00:00 EDT – 2024-05-30 03:00:00 EDT
    Ceiling Wind Weather Visbility
    3,000ft 340° @ 3kt Mist 6SM
    Clouds: Broken @ 3,000ft, Overcast @ 4,000ft
    Raw: KUNV 291618Z 2916/3012 27004KT P6SM VCTS SCT035 BKN100CB FM291700 29006KT 4SM -SHRA BR VCTS BKN035CB OVC050 FM292200 35004KT 4SM -SHRA BR OVC050 FM300300 34003KT 6SM BR BKN030 OVC040 FM300700 33002KT P6SM SCT050 BKN090
  • TAF
    2024-05-30 03:00:00 EDT – 2024-05-30 08:00:00 EDT
    Ceiling Wind Weather Visbility
    9,000ft 330° @ 2kt N/A 6SM
    Clouds: Scattered @ 5,000ft, Broken @ 9,000ft
    Raw: KUNV 291618Z 2916/3012 27004KT P6SM VCTS SCT035 BKN100CB FM291700 29006KT 4SM -SHRA BR VCTS BKN035CB OVC050 FM292200 35004KT 4SM -SHRA BR OVC050 FM300300 34003KT 6SM BR BKN030 OVC040 FM300700 33002KT P6SM SCT050 BKN090
Click/tap to add an annotation marker to the map
Airport Webcams
No webcams added yet.
Direct links to live image URLs will be displayed inline on this page. URLs to separate webpages will be linked to.
URL:
Direct links to live image URLs will be displayed inline on this page. URLs to separate webpages will be linked to.
URL:
Remarks
  • Ppr 24 hrs for unsked acr ops with more than 9 pax seats btn 0400-0900z call amgr.
  • Acft on either end rwy 06/24 cannot be seen on other end due to rwy grade.
  • Student training 2.5 nm ne at bellefonte arpt.
  • Deicing equip avbl on apn adj to twy b btn twys d & b3.
  • (a76) sawrs.
Comments
Leave a comment What was your experience like at this airport?